createdAt,value
2018-08-31T00:02:10.921Z,9.43
2018-08-31T00:08:05.918Z,11.91
2018-08-31T00:14:00.921Z,11.22
2018-08-31T00:19:55.914Z,11.35
2018-08-31T00:25:50.899Z,11.57
2018-08-31T00:31:45.894Z,9.08
2018-08-31T00:37:40.909Z,9.93
2018-08-31T00:43:35.934Z,10.67
2018-08-31T00:49:30.920Z,12.79
2018-08-31T00:55:25.925Z,9.51
2018-08-31T01:01:20.958Z,12.08
2018-08-31T01:07:15.980Z,12.9
2018-08-31T01:13:10.933Z,9.82
2018-08-31T01:19:05.950Z,12.24
2018-08-31T01:25:00.948Z,13.76
2018-08-31T01:30:55.949Z,16.5
2018-08-31T01:36:50.987Z,10.06
2018-08-31T01:42:45.950Z,15.13
2018-08-31T01:48:40.954Z,14.61
2018-08-31T01:54:35.957Z,14.21
2018-08-31T02:00:31.018Z,9.74
2018-08-31T02:06:25.967Z,12.25
2018-08-31T02:12:21.040Z,11
2018-08-31T02:18:15.998Z,13
2018-08-31T02:24:11.001Z,12.6
2018-08-31T02:30:05.991Z,15.4
2018-08-31T02:36:00.994Z,13.27
2018-08-31T02:41:56.000Z,17.12
2018-08-31T02:47:50.988Z,12.43
2018-08-31T02:53:45.996Z,15.65
2018-08-31T02:59:40.999Z,14.23
2018-08-31T03:05:36.003Z,13.85
2018-08-31T03:11:31.102Z,13.58
2018-08-31T03:17:26.029Z,12.88
2018-08-31T03:23:21.034Z,13.07
2018-08-31T03:29:16.087Z,15.02
2018-08-31T03:35:11.111Z,16.21
2018-08-31T03:41:06.025Z,15.57
2018-08-31T03:47:01.027Z,17.55
2018-08-31T03:52:56.054Z,17.44
2018-08-31T03:58:51.055Z,13.13
2018-08-31T04:04:46.030Z,17.26
2018-08-31T04:10:41.077Z,17.82
2018-08-31T04:16:36.070Z,14.19
2018-08-31T04:22:31.052Z,15.73
2018-08-31T04:28:26.063Z,14.48
2018-08-31T04:34:21.054Z,16.24
2018-08-31T04:40:16.047Z,20.94
2018-08-31T04:46:11.089Z,15.36
2018-08-31T04:52:06.076Z,17.9
2018-08-31T04:58:01.069Z,14.78
2018-08-31T05:03:56.073Z,21.3
2018-08-31T05:09:51.107Z,18.44
2018-08-31T05:15:46.098Z,17.83
2018-08-31T05:21:41.090Z,19.34
2018-08-31T05:27:36.086Z,20.61
2018-08-31T05:33:31.104Z,21.46
2018-08-31T05:39:26.125Z,21.43
2018-08-31T05:45:21.091Z,22.01
2018-08-31T05:51:16.157Z,18.99
2018-08-31T05:57:11.112Z,24.08
2018-08-31T06:03:06.110Z,19.39
2018-08-31T06:09:01.120Z,19.36
2018-08-31T06:14:56.124Z,29.89
2018-08-31T06:20:51.167Z,31.7
2018-08-31T06:26:46.125Z,33.42
2018-08-31T06:32:41.232Z,21.17
2018-08-31T06:38:36.215Z,20.6
2018-08-31T06:44:31.125Z,19.08
2018-08-31T06:50:26.180Z,19.74
2018-08-31T06:56:21.146Z,18.14
2018-08-31T07:02:16.198Z,15.89
2018-08-31T07:08:11.139Z,24.42
2018-08-31T07:14:06.187Z,31.97
2018-08-31T07:20:01.150Z,22.57
2018-08-31T07:25:56.151Z,31.76
2018-08-31T07:31:51.169Z,17
2018-08-31T07:37:46.181Z,18.19
2018-08-31T07:43:41.170Z,17.89
2018-08-31T07:49:36.221Z,21.86
2018-08-31T07:55:31.180Z,22.09
2018-08-31T08:01:26.207Z,15.39
2018-08-31T08:07:21.249Z,20.55
2018-08-31T08:13:16.218Z,24.72
2018-08-31T08:19:11.200Z,15.98
2018-08-31T08:25:06.221Z,15.62
2018-08-31T08:31:01.204Z,20.86
2018-08-31T08:36:56.224Z,11.33
2018-08-31T08:42:51.214Z,10.97
2018-08-31T08:48:46.411Z,11.87
2018-08-31T08:54:41.266Z,11.71
2018-08-31T09:00:36.221Z,10.68
2018-08-31T09:06:31.251Z,11.77
2018-08-31T09:12:26.311Z,11.33
2018-08-31T09:18:21.249Z,12.31
2018-08-31T09:24:16.268Z,11.35
2018-08-31T09:30:11.269Z,11.12
2018-08-31T09:36:06.243Z,12.1
2018-08-31T09:42:01.252Z,12.03
2018-08-31T09:47:56.249Z,15
2018-08-31T09:53:51.275Z,11.83
2018-08-31T09:59:46.236Z,10.33
2018-08-31T10:05:41.271Z,11.92
2018-08-31T10:11:36.250Z,9.76
2018-08-31T10:17:31.262Z,11.11
2018-08-31T10:23:26.284Z,9.27
2018-08-31T10:29:21.278Z,9.94
2018-08-31T10:35:16.256Z,9.75
2018-08-31T10:41:11.314Z,11.79
2018-08-31T10:47:06.295Z,8.96
2018-08-31T10:53:01.287Z,13.22
2018-08-31T10:58:56.301Z,12.66
2018-08-31T11:04:51.325Z,14.07
2018-08-31T11:10:46.315Z,15.19
2018-08-31T11:16:41.295Z,11.32
2018-08-31T11:22:36.330Z,10
2018-08-31T11:28:31.307Z,12.12
2018-08-31T11:34:26.328Z,10.96
2018-08-31T11:40:21.337Z,22.07
2018-08-31T12:02:06.090Z,19.4
2018-08-31T12:08:00.990Z,17.07
2018-08-31T12:13:55.961Z,13.48
2018-08-31T12:19:51.006Z,17.17
2018-08-31T12:25:45.984Z,18.47
2018-08-31T12:31:40.992Z,19.6
2018-08-31T12:37:35.952Z,19.72
2018-08-31T12:43:31.057Z,29.36
2018-08-31T12:49:25.983Z,17.29
2018-08-31T12:55:20.983Z,16.93
2018-08-31T13:01:15.982Z,16.9
2018-08-31T13:07:10.997Z,17.52
2018-08-31T13:13:06.055Z,19.74
2018-08-31T13:19:01.010Z,15.72
2018-08-31T13:24:56.009Z,18.26
2018-08-31T13:30:51.006Z,13.52
2018-08-31T13:36:46.033Z,17.98
2018-08-31T13:42:41.037Z,19.99
2018-08-31T13:48:36.082Z,22.05
2018-08-31T13:54:31.029Z,17.33
2018-08-31T14:00:26.102Z,17.21
2018-08-31T14:06:21.035Z,20.42
2018-08-31T14:12:16.047Z,21.74
2018-08-31T14:18:11.124Z,17.46
2018-08-31T14:24:06.039Z,20.81
2018-08-31T14:30:01.162Z,20.6
2018-08-31T14:35:56.032Z,19.68
2018-08-31T14:41:51.055Z,17.82
2018-08-31T14:47:46.047Z,15.37
2018-08-31T14:53:41.056Z,21.47
2018-08-31T14:59:36.070Z,22.09
2018-08-31T15:05:31.095Z,18.27
2018-08-31T15:11:26.096Z,20.78
2018-08-31T15:17:21.113Z,19.91
2018-08-31T15:23:16.150Z,19.94
2018-08-31T15:29:11.102Z,24.89
2018-08-31T15:35:06.120Z,18.43
2018-08-31T15:41:01.124Z,22.02
2018-08-31T15:46:56.101Z,17.94
2018-08-31T15:52:51.132Z,20.29
2018-08-31T15:58:46.102Z,19.39
2018-08-31T16:04:41.151Z,19.53
2018-08-31T16:10:36.093Z,24.2
2018-08-31T16:16:31.184Z,19.14
2018-08-31T16:22:26.146Z,19.99
2018-08-31T16:28:21.170Z,20.3
2018-08-31T16:34:16.134Z,25.43
2018-08-31T16:40:11.114Z,23.49
2018-08-31T16:46:06.191Z,20.04
2018-08-31T16:52:01.157Z,21.11
2018-08-31T16:57:56.145Z,20.44
2018-08-31T17:03:51.138Z,15.46
2018-08-31T17:09:46.137Z,17.62
2018-08-31T17:15:41.145Z,20.66
2018-08-31T17:21:36.149Z,16.65
2018-08-31T17:27:31.169Z,21.13
2018-08-31T17:33:26.160Z,25.99
2018-08-31T17:39:21.224Z,20.09
2018-08-31T17:45:16.186Z,20.88
2018-08-31T17:51:11.213Z,16.15
2018-08-31T17:57:06.213Z,19.11
2018-08-31T18:03:01.243Z,20.32
2018-08-31T18:08:56.205Z,19.06
2018-08-31T18:14:51.241Z,25.63
2018-08-31T18:20:46.193Z,18.71
2018-08-31T18:26:41.192Z,18.62
2018-08-31T18:32:40.894Z,17.01
2018-08-31T18:38:31.211Z,22.58
2018-08-31T18:44:26.207Z,20.15
2018-08-31T18:50:21.225Z,24.74
2018-08-31T18:56:16.231Z,18.41
2018-08-31T19:02:11.209Z,25
2018-08-31T19:08:06.218Z,22.85
2018-08-31T19:14:01.248Z,18.33
2018-08-31T19:19:56.217Z,19.7
2018-08-31T19:25:51.265Z,18.87
2018-08-31T19:31:46.220Z,18.59
2018-08-31T19:37:41.219Z,22.62
2018-08-31T19:43:36.272Z,22.93
2018-08-31T19:49:31.247Z,16.64
2018-08-31T19:55:26.281Z,21.97
2018-08-31T20:01:21.244Z,17.86
2018-08-31T20:07:16.267Z,21.31
2018-08-31T20:13:11.298Z,20.8
2018-08-31T20:19:06.272Z,29.91
2018-08-31T20:25:01.401Z,23.73
2018-08-31T20:30:56.351Z,26.55
2018-08-31T20:36:51.337Z,22
2018-08-31T20:42:46.279Z,19.77
2018-08-31T20:48:41.270Z,23.74
2018-08-31T20:54:36.293Z,20.79
2018-08-31T21:00:31.356Z,18.44
2018-08-31T21:06:26.298Z,33.6
2018-08-31T21:12:21.284Z,23.32
2018-08-31T21:18:16.324Z,31.22
2018-08-31T21:24:11.317Z,20.94
2018-08-31T21:30:06.317Z,21.52
2018-08-31T21:36:01.325Z,23.64
2018-08-31T21:41:56.327Z,21.07
2018-08-31T21:47:51.375Z,23.15
2018-08-31T21:53:46.311Z,20.03
2018-08-31T21:59:41.330Z,22.88
2018-08-31T22:05:36.341Z,24.09
2018-08-31T22:11:31.329Z,25.42
2018-08-31T22:17:26.429Z,20.07
2018-08-31T22:23:21.327Z,24.39
2018-08-31T22:29:16.379Z,24.9
2018-08-31T22:35:11.369Z,25.35
2018-08-31T22:41:06.378Z,20.61
2018-08-31T22:47:01.388Z,24.33
2018-08-31T22:52:56.344Z,21.94
2018-08-31T22:58:51.422Z,30.46
2018-08-31T23:04:46.369Z,20.9
2018-08-31T23:10:41.510Z,31.5
2018-08-31T23:16:36.380Z,25.81
2018-08-31T23:22:31.381Z,22.66
2018-08-31T23:28:26.373Z,28.47
2018-08-31T23:34:21.404Z,20.16
2018-08-31T23:40:16.436Z,25.85
2018-08-31T23:46:11.394Z,21.92
2018-08-31T23:52:06.374Z,28.17
2018-08-31T23:58:01.450Z,17.72
